Time;durP1;ratioP1;P1;durP2;ratioP2;P2;SDS_P1;SDS_P2;PMS_P1;PMS_P2;Temp;Humidity;BMP_temperature;BMP_pressure;BME280_temperature;BME280_humidity;BME280_pressure;Samples;Min_cycle;Max_cycle;Signal;HPM_P1;HPM_P2
2021/03/14 00:02:23;;;;;;;1999.90;999.90;;;4.10;99.90;;;;;;5032117;28;20226;-67
2021/03/14 00:04:49;;;;;;;1999.90;999.90;;;4.10;99.90;;;;;;5031829;28;20267;-67
2021/03/14 00:07:14;;;;;;;1999.90;999.90;;;4.10;99.90;;;;;;5032066;28;20180;-67
2021/03/14 00:09:40;;;;;;;1999.90;999.90;;;4.10;99.90;;;;;;5031856;28;20250;-68
2021/03/14 00:12:07;;;;;;;1999.90;999.90;;;4.10;99.90;;;;;;5032017;28;20172;-68
2021/03/14 00:14:32;;;;;;;1999.90;999.90;;;4.10;99.90;;;;;;5032038;28;20630;-67
2021/03/14 00:16:58;;;;;;;1999.90;999.90;;;4.10;99.90;;;;;;5031636;28;20419;-67
2021/03/14 00:19:24;;;;;;;1999.90;999.90;;;4.20;99.90;;;;;;5031938;28;20195;-68
2021/03/14 00:21:49;;;;;;;1999.90;999.90;;;4.30;99.90;;;;;;5031940;28;20207;-68
2021/03/14 00:24:15;;;;;;;1999.90;999.90;;;4.30;99.90;;;;;;5031877;28;20572;-68
2021/03/14 00:26:42;;;;;;;1999.90;999.90;;;4.40;99.90;;;;;;5031622;28;20310;-67
2021/03/14 00:29:07;;;;;;;1999.90;999.90;;;4.40;99.90;;;;;;5031787;28;20228;-67
2021/03/14 00:31:33;;;;;;;1999.90;999.90;;;4.50;99.90;;;;;;5035147;28;20509;-67
2021/03/14 00:33:59;;;;;;;1999.90;999.90;;;4.50;99.90;;;;;;5035923;28;20414;-68
2021/03/14 00:36:24;;;;;;;1999.90;999.90;;;4.60;99.90;;;;;;5035612;28;20318;-68
2021/03/14 00:38:50;;;;;;;1999.90;999.90;;;4.60;99.90;;;;;;5035727;28;20172;-67
2021/03/14 00:41:16;;;;;;;1999.90;999.90;;;4.60;99.90;;;;;;5035944;28;20169;-67
2021/03/14 00:43:41;;;;;;;1999.90;999.90;;;4.70;99.90;;;;;;5035804;28;20176;-67
2021/03/14 00:46:07;;;;;;;1999.90;999.90;;;4.70;99.90;;;;;;5035388;28;20255;-68
2021/03/14 00:48:32;;;;;;;1999.90;999.90;;;4.70;99.90;;;;;;5035556;28;20172;-67
2021/03/14 00:50:58;;;;;;;1999.90;999.90;;;4.70;99.90;;;;;;5035636;28;20263;-67
2021/03/14 00:53:24;;;;;;;1999.90;999.90;;;4.60;99.90;;;;;;5035550;28;20196;-67
2021/03/14 00:55:50;;;;;;;1999.90;999.90;;;4.70;99.90;;;;;;5035567;28;20551;-67
2021/03/14 00:58:16;;;;;;;1999.90;999.90;;;4.70;99.90;;;;;;5034203;28;20184;-67
2021/03/14 01:00:42;;;;;;;1999.90;999.90;;;4.70;99.90;;;;;;5035316;28;20433;-67
2021/03/14 01:03:08;;;;;;;1999.90;999.90;;;4.70;99.90;;;;;;5035399;28;20556;-67
2021/03/14 01:05:33;;;;;;;1999.90;999.90;;;4.70;99.90;;;;;;5035088;28;20457;-67
2021/03/14 01:07:59;;;;;;;1999.90;999.90;;;4.70;99.90;;;;;;5035227;28;20183;-67
2021/03/14 01:10:25;;;;;;;1999.90;999.90;;;4.80;99.90;;;;;;5035219;28;20602;-66
2021/03/14 01:12:50;;;;;;;1999.90;999.90;;;4.80;99.90;;;;;;5035195;28;20172;-66
2021/03/14 01:15:16;;;;;;;1999.90;999.90;;;4.80;99.90;;;;;;5034963;28;20634;-66
2021/03/14 01:17:42;;;;;;;1999.90;999.90;;;4.80;99.90;;;;;;5035161;28;20175;-67
2021/03/14 01:20:11;;;;;;;1999.90;999.90;;;4.80;99.90;;;;;;5035009;28;20430;-67
2021/03/14 01:22:37;;;;;;;1999.90;999.90;;;4.80;99.90;;;;;;5035006;28;20188;-67
2021/03/14 01:25:04;;;;;;;1999.90;999.90;;;4.80;99.90;;;;;;5034753;28;20176;-67
2021/03/14 01:27:30;;;;;;;1999.90;999.90;;;4.80;99.90;;;;;;5034900;28;20580;-66
2021/03/14 01:29:56;;;;;;;1999.90;999.90;;;4.80;99.90;;;;;;5034721;28;20234;-65
2021/03/14 01:32:21;;;;;;;1999.90;999.90;;;4.80;99.90;;;;;;5034901;28;20175;-66
2021/03/14 01:34:48;;;;;;;1999.90;999.90;;;4.80;99.90;;;;;;5034549;28;20157;-67
2021/03/14 01:37:15;;;;;;;1999.90;999.90;;;4.80;99.90;;;;;;5034685;28;20199;-67
2021/03/14 01:39:40;;;;;;;1999.90;999.90;;;4.80;99.90;;;;;;5034692;28;20654;-67
2021/03/14 01:42:07;;;;;;;1999.90;999.90;;;4.70;99.90;;;;;;5033307;28;20259;-66
2021/03/14 01:44:32;;;;;;;1999.90;999.90;;;4.70;99.90;;;;;;5034692;28;20557;-67
2021/03/14 01:46:58;;;;;;;1999.90;999.90;;;4.70;99.90;;;;;;5034330;28;20402;-66
2021/03/14 01:49:24;;;;;;;1999.90;999.90;;;4.70;99.90;;;;;;5034420;28;20705;-66
2021/03/14 01:51:50;;;;;;;1999.90;999.90;;;4.70;99.90;;;;;;5034382;28;20453;-67
2021/03/14 01:54:16;;;;;;;1999.90;999.90;;;4.70;99.90;;;;;;5034464;28;20431;-67
2021/03/14 01:56:42;;;;;;;1999.90;999.90;;;4.70;99.90;;;;;;5034114;28;20399;-67
2021/03/14 01:59:07;;;;;;;1999.90;999.90;;;4.70;99.90;;;;;;5034495;28;20188;-66
2021/03/14 02:01:33;;;;;;;1999.90;999.90;;;4.80;99.90;;;;;;5034364;28;20175;-66
2021/03/14 02:03:58;;;;;;;1999.90;999.90;;;4.80;99.90;;;;;;5034334;28;20180;-66
2021/03/14 02:06:24;;;;;;;1999.90;999.90;;;4.80;99.90;;;;;;5033952;28;20560;-66
2021/03/14 02:08:50;;;;;;;1999.90;999.90;;;4.70;99.90;;;;;;5034095;28;20204;-66
2021/03/14 02:11:16;;;;;;;1999.90;999.90;;;4.70;99.90;;;;;;5034094;28;20283;-66
2021/03/14 02:13:46;;;;;;;1999.90;999.90;;;4.70;99.90;;;;;;5034095;28;20752;-66
2021/03/14 02:16:18;;;;;;;1999.90;999.90;;;4.70;99.90;;;;;;5033800;28;20164;-66
2021/03/14 02:18:49;;;;;;;1999.90;999.90;;;4.70;99.90;;;;;;5033954;28;20407;-67
2021/03/14 02:21:15;;;;;;;1999.90;999.90;;;4.60;99.90;;;;;;5033943;28;20407;-67
2021/03/14 02:24:02;;;;;;;1999.90;999.90;;;4.60;99.90;;;;;;5033959;28;20187;-67
2021/03/14 02:26:45;;;;;;;1999.90;999.90;;;4.60;99.90;;;;;;5033687;28;20179;-66
2021/03/14 02:29:20;;;;;;;1999.90;999.90;;;4.60;99.90;;;;;;5033738;28;20219;-67
2021/03/14 02:31:49;;;;;;;1999.90;999.90;;;4.50;99.90;;;;;;5033656;28;20458;-66
2021/03/14 02:34:19;;;;;;;1999.90;999.90;;;4.50;99.90;;;;;;5033672;28;20403;-66
2021/03/14 02:36:46;;;;;;;1999.90;999.90;;;4.50;99.90;;;;;;5033419;28;20387;-66
2021/03/14 02:39:15;;;;;;;1999.90;999.90;;;4.50;99.90;;;;;;5033474;28;20457;-66
2021/03/14 02:41:42;;;;;;;1999.90;999.90;;;4.50;99.90;;;;;;5033710;28;20408;-65
2021/03/14 02:44:11;;;;;;;1999.90;999.90;;;4.50;99.90;;;;;;5033466;28;20917;-65
2021/03/14 02:46:37;;;;;;;1999.90;999.90;;;4.40;99.90;;;;;;5033180;28;20180;-65
2021/03/14 02:49:03;;;;;;;1999.90;999.90;;;4.40;99.90;;;;;;5033163;28;20254;-67
2021/03/14 02:51:29;;;;;;;1999.90;999.90;;;4.40;99.90;;;;;;5033327;28;20214;-66
2021/03/14 02:53:56;;;;;;;1999.90;999.90;;;4.30;99.90;;;;;;5032970;28;20415;-67
2021/03/14 02:56:22;;;;;;;1999.90;999.90;;;4.20;99.90;;;;;;5033030;28;20183;-67
2021/03/14 02:58:50;;;;;;;1999.90;999.90;;;4.30;99.90;;;;;;5033316;28;20180;-67
2021/03/14 03:01:16;;;;;;;1999.90;999.90;;;4.30;99.90;;;;;;5033191;28;20822;-65
2021/03/14 03:03:42;;;;;;;1999.90;999.90;;;4.30;99.90;;;;;;5033110;28;20403;-66
2021/03/14 03:06:09;;;;;;;1999.90;999.90;;;4.30;99.90;;;;;;5032784;28;20685;-66
2021/03/14 03:08:37;;;;;;;1999.90;999.90;;;4.30;99.90;;;;;;5032983;28;20164;-66
2021/03/14 03:11:07;;;;;;;1999.90;999.90;;;4.30;99.90;;;;;;5032948;28;20279;-67
2021/03/14 03:13:37;;;;;;;1999.90;999.90;;;4.30;99.90;;;;;;5033075;28;20188;-67
2021/03/14 03:16:07;;;;;;;1999.90;999.90;;;4.30;99.90;;;;;;5032591;28;20164;-67
2021/03/14 03:18:33;;;;;;;1999.90;999.90;;;4.20;99.90;;;;;;5032902;28;20399;-66
2021/03/14 03:21:00;;;;;;;1999.90;999.90;;;4.30;99.90;;;;;;5032694;28;20459;-66
2021/03/14 03:23:25;;;;;;;1999.90;999.90;;;4.20;99.90;;;;;;5032791;28;20222;-65
2021/03/14 03:25:51;;;;;;;1999.90;999.90;;;4.30;99.90;;;;;;5032473;28;20172;-65
2021/03/14 03:28:17;;;;;;;1999.90;999.90;;;4.30;99.90;;;;;;5032814;28;20176;-66
2021/03/14 03:30:43;;;;;;;1999.90;999.90;;;4.30;99.90;;;;;;5032457;28;20193;-66
2021/03/14 03:33:10;;;;;;;1999.90;999.90;;;4.30;99.90;;;;;;5032740;28;20191;-65
2021/03/14 03:35:36;;;;;;;1999.90;999.90;;;4.30;99.90;;;;;;5032239;28;20527;-65
2021/03/14 03:38:02;;;;;;;1999.90;999.90;;;4.20;99.90;;;;;;5032652;28;20172;-65
2021/03/14 03:40:29;;;;;;;1999.90;999.90;;;4.30;99.90;;;;;;5032452;28;20473;-66
2021/03/14 03:43:33;;;;;;;1999.90;999.90;;;4.30;99.90;;;;;;5032471;28;20168;-66
2021/03/14 03:46:02;;;;;;;1999.90;999.90;;;4.30;99.90;;;;;;5032111;28;20888;-66
2021/03/14 03:48:34;;;;;;;1999.90;999.90;;;4.30;99.90;;;;;;5032323;28;20408;-65
2021/03/14 03:51:03;;;;;;;1999.90;999.90;;;4.30;99.90;;;;;;5032224;28;20442;-65
2021/03/14 03:53:29;;;;;;;1999.90;999.90;;;4.40;99.90;;;;;;5032221;28;20410;-65
2021/03/14 03:55:56;;;;;;;1999.90;999.90;;;4.40;99.90;;;;;;5031969;28;20426;-65
2021/03/14 03:58:24;;;;;;;1999.90;999.90;;;4.40;99.90;;;;;;5032191;28;20584;-66
2021/03/14 04:00:50;;;;;;;1999.90;999.90;;;4.40;99.90;;;;;;5032175;28;20188;-66
2021/03/14 04:03:17;;;;;;;1999.90;999.90;;;4.30;99.90;;;;;;5032193;28;20473;-66
2021/03/14 04:05:43;;;;;;;1999.90;999.90;;;4.30;99.90;;;;;;5031080;28;20417;-65
2021/03/14 04:08:11;;;;;;;1999.90;999.90;;;4.30;99.90;;;;;;5032039;28;20184;-65
2021/03/14 04:10:37;;;;;;;1999.90;999.90;;;4.30;99.90;;;;;;5031906;28;20204;-65
2021/03/14 04:13:05;;;;;;;1999.90;999.90;;;4.30;99.90;;;;;;5032010;28;20192;-65
2021/03/14 04:15:32;;;;;;;1999.90;999.90;;;4.40;99.90;;;;;;5031719;28;20399;-65
2021/03/14 04:17:59;;;;;;;1999.90;999.90;;;4.30;99.90;;;;;;5032048;28;20171;-65
2021/03/14 04:20:31;;;;;;;1999.90;999.90;;;4.30;99.90;;;;;;5031804;28;20431;-64
2021/03/14 04:23:00;;;;;;;1999.90;999.90;;;4.30;99.90;;;;;;5032110;28;20461;-65
2021/03/14 04:25:27;;;;;;;1999.90;999.90;;;4.30;99.90;;;;;;5031641;28;20180;-66
2021/03/14 04:27:54;;;;;;;1999.90;999.90;;;4.30;99.90;;;;;;5032040;28;20222;-66
2021/03/14 04:30:22;;;;;;;1999.90;999.90;;;4.20;99.90;;;;;;5031771;28;20235;-65
2021/03/14 04:32:49;;;;;;;1999.90;999.90;;;4.20;99.90;;;;;;5031850;28;20653;-65
2021/03/14 04:35:16;;;;;;;1999.90;999.90;;;4.20;99.90;;;;;;5031457;28;20175;-65
2021/03/14 04:37:42;;;;;;;1999.90;999.90;;;4.20;99.90;;;;;;5031742;28;20226;-65
2021/03/14 04:40:10;;;;;;;1999.90;999.90;;;4.20;99.90;;;;;;5031670;28;20654;-65
2021/03/14 04:42:37;;;;;;;1999.90;999.90;;;4.20;99.90;;;;;;5031876;28;20557;-66
2021/03/14 04:45:06;;;;;;;1999.90;999.90;;;4.20;99.90;;;;;;5031486;28;20242;-66
2021/03/14 04:47:32;;;;;;;1999.90;999.90;;;4.20;99.90;;;;;;5031643;28;20603;-66
2021/03/14 04:49:58;;;;;;;1999.90;999.90;;;4.20;99.90;;;;;;5031392;28;20238;-66
2021/03/14 04:52:25;;;;;;;1999.90;999.90;;;4.10;99.90;;;;;;5031619;28;20434;-66
2021/03/14 04:54:51;;;;;;;1999.90;999.90;;;4.10;99.90;;;;;;5031364;28;20909;-65
2021/03/14 04:57:18;;;;;;;1999.90;999.90;;;4.20;99.90;;;;;;5031617;28;20452;-67
2021/03/14 04:59:44;;;;;;;1999.90;999.90;;;4.20;99.90;;;;;;5032022;28;20267;-65
2021/03/14 05:02:13;;;;;;;1999.90;999.90;;;4.20;99.90;;;;;;5031484;28;20168;-66
2021/03/14 05:04:43;;;;;;;1999.90;999.90;;;4.20;99.90;;;;;;5031448;28;20399;-65
2021/03/14 05:07:12;;;;;;;1999.90;999.90;;;4.20;99.90;;;;;;5031428;28;20165;-65
2021/03/14 05:09:40;;;;;;;1999.90;999.90;;;4.20;99.90;;;;;;5031412;28;20430;-65
2021/03/14 05:12:07;;;;;;;1999.90;999.90;;;4.20;99.90;;;;;;5031506;28;20195;-65
2021/03/14 05:14:35;;;;;;;1999.90;999.90;;;4.20;99.90;;;;;;5031370;28;20749;-65
2021/03/14 05:17:02;;;;;;;1999.90;999.90;;;4.20;99.90;;;;;;5033423;28;20259;-65
2021/03/14 05:19:30;;;;;;;1999.90;999.90;;;4.20;99.90;;;;;;5035031;28;20423;-65
2021/03/14 05:21:56;;;;;;;1999.90;999.90;;;4.20;99.90;;;;;;5035125;28;20195;-66
2021/03/14 05:24:22;;;;;;;1999.90;999.90;;;4.30;99.90;;;;;;5035035;28;20249;-66
2021/03/14 05:26:49;;;;;;;1999.90;999.90;;;4.30;99.90;;;;;;5034759;28;20458;-65
2021/03/14 05:29:16;;;;;;;1999.90;999.90;;;4.30;99.90;;;;;;5034842;28;20427;-65
2021/03/14 05:31:42;;;;;;;1999.90;999.90;;;4.30;99.90;;;;;;5034775;28;20199;-66
2021/03/14 05:34:16;;;;;;;1999.90;999.90;;;4.30;99.90;;;;;;5034856;28;20405;-66
2021/03/14 05:36:42;;;;;;;1999.90;999.90;;;4.30;99.90;;;;;;5034581;28;20163;-66
2021/03/14 05:39:09;;;;;;;1999.90;999.90;;;4.30;99.90;;;;;;5034692;28;20279;-66
2021/03/14 05:41:36;;;;;;;1999.90;999.90;;;4.30;99.90;;;;;;5034684;28;20603;-66
2021/03/14 05:44:03;;;;;;;1999.90;999.90;;;4.30;99.90;;;;;;5034630;28;20169;-66
2021/03/14 05:46:29;;;;;;;1999.90;999.90;;;4.30;99.90;;;;;;5034461;28;20183;-66
2021/03/14 05:48:55;;;;;;;1999.90;999.90;;;4.30;99.90;;;;;;5034400;28;20208;-66
2021/03/14 05:51:33;;;;;;;1999.90;999.90;;;4.30;99.90;;;;;;5034512;28;20200;-66
2021/03/14 05:53:59;;;;;;;1999.90;999.90;;;4.30;99.90;;;;;;5034613;28;20167;-65
2021/03/14 05:56:27;;;;;;;1999.90;999.90;;;4.40;99.90;;;;;;5034095;28;20168;-65
2021/03/14 05:58:55;;;;;;;1999.90;999.90;;;4.40;99.90;;;;;;5034328;28;20165;-65
2021/03/14 06:01:25;;;;;;;1999.90;999.90;;;4.30;99.90;;;;;;5034318;28;20210;-65
2021/03/14 06:03:54;;;;;;;1999.90;999.90;;;4.40;99.90;;;;;;5034493;28;20600;-66
2021/03/14 06:06:20;;;;;;;1999.90;999.90;;;4.40;99.90;;;;;;5034037;28;20176;-65
2021/03/14 06:08:46;;;;;;;1999.90;999.90;;;4.30;99.90;;;;;;5032953;28;20634;-66
2021/03/14 06:11:11;;;;;;;1999.90;999.90;;;4.30;99.90;;;;;;5034022;28;20447;-66
2021/03/14 06:13:38;;;;;;;1999.90;999.90;;;4.30;99.90;;;;;;5034146;28;20774;-66
2021/03/14 06:16:04;;;;;;;1999.90;999.90;;;4.40;99.90;;;;;;5033895;28;20165;-66
2021/03/14 06:18:29;;;;;;;1999.90;999.90;;;4.40;99.90;;;;;;5034170;28;20184;-66
2021/03/14 06:20:55;;;;;;;1999.90;999.90;;;4.40;99.90;;;;;;5033980;28;20430;-65
2021/03/14 06:23:22;;;;;;;1999.90;999.90;;;4.40;99.90;;;;;;5033958;28;20647;-66
2021/03/14 06:25:53;;;;;;;1999.90;999.90;;;4.40;99.90;;;;;;5033587;28;20406;-65
2021/03/14 06:28:32;;;;;;;1999.90;999.90;;;4.50;99.90;;;;;;5033133;28;20404;-65
2021/03/14 06:31:14;;;;;;;1999.90;999.90;;;4.60;99.90;;;;;;5033566;28;20228;-65
2021/03/14 06:33:39;;;;;;;1999.90;999.90;;;4.60;99.90;;;;;;5033791;28;20168;-66
2021/03/14 06:36:15;;;;;;;1999.90;999.90;;;4.60;99.90;;;;;;5033438;28;20249;-66
2021/03/14 06:38:42;;;;;;;1999.90;999.90;;;4.60;99.90;;;;;;5033682;28;20160;-66
2021/03/14 06:41:15;;;;;;;1999.90;999.90;;;4.70;99.90;;;;;;5033643;28;20179;-66
2021/03/14 06:43:49;;;;;;;1999.90;999.90;;;4.70;99.90;;;;;;5033693;28;20164;-66
2021/03/14 06:46:26;;;;;;;1999.90;999.90;;;4.60;99.90;;;;;;5033222;28;20924;-66
2021/03/14 06:49:14;;;;;;;1999.90;999.90;;;4.80;99.90;;;;;;5033332;28;20192;-65
2021/03/14 06:51:40;;;;;;;1999.90;999.90;;;4.80;99.90;;;;;;5033379;28;20541;-66
2021/03/14 06:54:25;;;;;;;1999.90;999.90;;;4.80;99.90;;;;;;5033432;28;20665;-64
2021/03/14 06:57:12;;;;;;;1999.90;999.90;;;4.90;99.90;;;;;;5033130;28;20407;-64
2021/03/14 06:59:38;;;;;;;1999.90;999.90;;;4.90;99.90;;;;;;5033334;28;20415;-65
2021/03/14 07:02:05;;;;;;;1999.90;999.90;;;4.90;99.90;;;;;;5033198;28;20429;-66
2021/03/14 07:04:32;;;;;;;1999.90;999.90;;;5.00;99.90;;;;;;5033088;28;20191;-65
2021/03/14 07:06:59;;;;;;;1999.90;999.90;;;5.10;99.90;;;;;;5032859;28;20404;-66
2021/03/14 07:09:24;;;;;;;1999.90;999.90;;;5.20;99.90;;;;;;5033011;28;20611;-66
2021/03/14 07:11:50;;;;;;;1999.90;999.90;;;5.20;99.90;;;;;;5033010;28;20486;-66
2021/03/14 07:14:17;;;;;;;1999.90;999.90;;;5.30;99.90;;;;;;5032967;28;20180;-66
2021/03/14 07:16:59;;;;;;;1999.90;999.90;;;5.40;99.90;;;;;;5032657;28;20202;-65
2021/03/14 07:19:31;;;;;;;1999.90;999.90;;;5.40;99.90;;;;;;5032893;28;20431;-65
2021/03/14 07:22:03;;;;;;;1999.90;999.90;;;5.40;99.90;;;;;;5032809;28;21107;-65
2021/03/14 07:24:42;;;;;;;1999.90;999.90;;;5.40;99.90;;;;;;5032731;28;20464;-65
2021/03/14 07:27:19;;;;;;;1999.90;999.90;;;5.50;99.90;;;;;;5032633;28;20418;-65
2021/03/14 07:29:47;;;;;;;1999.90;999.90;;;5.40;99.90;;;;;;5032567;28;20430;-65
2021/03/14 07:32:12;;;;;;;1999.90;999.90;;;5.40;99.90;;;;;;5032612;28;20923;-65
2021/03/14 07:34:38;;;;;;;1999.90;999.90;;;5.40;99.90;;;;;;5032556;28;20388;-65
2021/03/14 07:37:04;;;;;;;1999.90;999.90;;;5.40;99.90;;;;;;5032402;28;20167;-65
2021/03/14 07:39:29;;;;;;;1999.90;999.90;;;5.50;99.90;;;;;;5032438;28;20188;-64
2021/03/14 07:41:56;;;;;;;1999.90;999.90;;;5.50;99.90;;;;;;5032509;28;20402;-65
2021/03/14 07:44:24;;;;;;;1999.90;999.90;;;5.60;99.90;;;;;;5032452;28;20188;-65
2021/03/14 07:46:52;;;;;;;1999.90;999.90;;;5.60;99.90;;;;;;5032191;28;20395;-66
2021/03/14 07:49:20;;;;;;;1999.90;999.90;;;5.70;99.90;;;;;;5032246;28;20442;-66
2021/03/14 07:51:51;;;;;;;1999.90;999.90;;;5.70;99.90;;;;;;5032413;28;20825;-66
2021/03/14 07:54:41;;;;;;;1999.90;999.90;;;5.80;99.90;;;;;;5032416;28;20403;-66
2021/03/14 07:57:09;;;;;;;1999.90;999.90;;;5.90;99.90;;;;;;5026529;28;20426;-65
2021/03/14 07:59:35;;;;;;;1999.90;999.90;;;5.90;99.90;;;;;;5032075;28;20484;-65
2021/03/14 08:02:19;;;;;;;1999.90;999.90;;;5.80;99.90;;;;;;5032406;28;20411;-65
2021/03/14 08:04:53;;;;;;;1999.90;999.90;;;5.90;99.90;;;;;;5031988;28;20438;-65
2021/03/14 08:07:34;;;;;;;1999.90;999.90;;;6.00;99.90;;;;;;5032056;28;20403;-66
2021/03/14 08:10:00;;;;;;;1999.90;999.90;;;6.10;99.90;;;;;;5031884;28;20434;-65
2021/03/14 08:12:34;;;;;;;1999.90;999.90;;;6.10;99.90;;;;;;5032037;28;20418;-65
2021/03/14 08:15:00;;;;;;;1999.90;999.90;;;6.20;99.90;;;;;;5031740;28;20871;-65
2021/03/14 08:17:34;;;;;;;1999.90;999.90;;;6.00;99.90;;;;;;5031969;28;20464;-65
2021/03/14 08:20:00;;;;;;;1999.90;999.90;;;6.00;99.90;;;;;;5031978;28;20195;-65
2021/03/14 08:22:37;;;;;;;1999.90;999.90;;;5.90;99.90;;;;;;5031908;28;21269;-65
2021/03/14 08:25:26;;;;;;;1999.90;999.90;;;5.80;99.90;;;;;;5031629;28;20310;-65
2021/03/14 08:27:55;;;;;;;1999.90;999.90;;;5.80;99.90;;;;;;5031875;28;20410;-66
2021/03/14 08:30:30;;;;;;;1999.90;999.90;;;5.80;99.90;;;;;;5031765;28;20447;-65
2021/03/14 08:33:17;;;;;;;1999.90;999.90;;;5.80;99.90;;;;;;5031775;28;20391;-66
2021/03/14 08:35:48;;;;;;;1999.90;999.90;;;5.80;99.90;;;;;;5031505;28;20542;-65
2021/03/14 08:38:31;;;;;;;1999.90;999.90;;;5.90;99.90;;;;;;5031729;28;20395;-65
2021/03/14 08:41:22;;;;;;;1999.90;999.90;;;5.80;99.90;;;;;;5031669;28;20423;-65
2021/03/14 08:43:59;;;;;;;1999.90;999.90;;;5.80;99.90;;;;;;5031628;28;20407;-66
2021/03/14 08:46:50;;;;;;;1999.90;999.90;;;5.80;99.90;;;;;;5031380;28;20403;-65
2021/03/14 08:49:20;;;;;;;1999.90;999.90;;;5.80;99.90;;;;;;5031531;28;20478;-66
2021/03/14 08:51:46;;;;;;;1999.90;999.90;;;5.80;99.90;;;;;;5033607;28;20451;-65
2021/03/14 08:54:13;;;;;;;1999.90;999.90;;;5.80;99.90;;;;;;5035610;28;20414;-65
2021/03/14 08:56:39;;;;;;;1999.90;999.90;;;5.90;99.90;;;;;;5035267;28;20406;-65
2021/03/14 08:59:07;;;;;;;1999.90;999.90;;;5.90;99.90;;;;;;5035448;28;20430;-66
2021/03/14 09:01:33;;;;;;;1999.90;999.90;;;5.80;99.90;;;;;;5035525;28;20641;-66
2021/03/14 09:04:15;;;;;;;1999.90;999.90;;;5.80;99.90;;;;;;5035386;28;20412;-65
2021/03/14 09:06:41;;;;;;;1999.90;999.90;;;5.80;99.90;;;;;;5035161;28;20409;-65
2021/03/14 09:09:09;;;;;;;1999.90;999.90;;;5.80;99.90;;;;;;5035337;28;20816;-65
2021/03/14 09:11:54;;;;;;;1999.90;999.90;;;5.70;99.90;;;;;;5035160;28;20458;-65
2021/03/14 09:14:33;;;;;;;1999.90;999.90;;;5.60;99.90;;;;;;5035272;28;20421;-66
2021/03/14 09:17:10;;;;;;;1999.90;999.90;;;5.50;99.90;;;;;;5034966;28;20399;-66
2021/03/14 09:19:37;;;;;;;1999.90;999.90;;;5.50;99.90;;;;;;5035108;28;20823;-66
2021/03/14 09:22:25;;;;;;;1999.90;999.90;;;5.50;99.90;;;;;;5035120;28;20407;-66
2021/03/14 09:24:55;;;;;;;1999.90;999.90;;;5.50;99.90;;;;;;5034725;28;20410;-66
2021/03/14 09:27:44;;;;;;;1999.90;999.90;;;5.50;99.90;;;;;;5034877;28;20443;-66
2021/03/14 09:30:11;;;;;;;1999.90;999.90;;;5.50;99.90;;;;;;5034597;28;20423;-65
2021/03/14 09:32:42;;;;;;;1999.90;999.90;;;5.50;99.90;;;;;;5034836;28;20403;-65
2021/03/14 09:35:09;;;;;;;1999.90;999.90;;;5.50;99.90;;;;;;5034512;28;20407;-66
2021/03/14 09:37:36;;;;;;;1999.90;999.90;;;5.50;99.90;;;;;;5034879;28;20410;-66
2021/03/14 09:40:30;;;;;;;1999.90;999.90;;;5.50;99.90;;;;;;5034760;28;20434;-65
2021/03/14 09:43:15;;;;;;;1999.90;999.90;;;5.40;99.90;;;;;;5016792;28;20514;-67
2021/03/14 09:45:46;;;;;;;1999.90;999.90;;;5.30;99.90;;;;;;5034475;28;20457;-66
2021/03/14 09:48:18;;;;;;;1999.90;999.90;;;5.30;99.90;;;;;;5034878;28;20750;-65
2021/03/14 09:51:07;;;;;;;1999.90;999.90;;;5.30;99.90;;;;;;5034431;28;20470;-66
2021/03/14 09:53:37;;;;;;;1999.90;999.90;;;5.30;99.90;;;;;;5034220;28;20950;-65
2021/03/14 09:56:05;;;;;;;1999.90;999.90;;;5.40;99.90;;;;;;5034115;28;20414;-66
2021/03/14 09:58:31;;;;;;;1999.90;999.90;;;5.40;99.90;;;;;;5030105;28;20399;-66
2021/03/14 10:00:59;;;;;;;1999.90;999.90;;;5.50;99.90;;;;;;5032103;28;20459;-65
2021/03/14 10:03:29;;;;;;;1999.90;999.90;;;5.60;99.90;;;;;;5031763;28;20419;-66
2021/03/14 10:06:04;;;;;;;1999.90;999.90;;;5.70;99.90;;;;;;5032350;28;20411;-65
2021/03/14 10:08:31;;;;;;;1999.90;999.90;;;5.70;99.90;;;;;;5032968;28;20460;-66
2021/03/14 10:11:04;;;;;;;1999.90;999.90;;;5.70;99.90;;;;;;5032665;28;20511;-66
2021/03/14 10:13:30;;;;;;;1999.90;999.90;;;5.70;99.90;;;;;;5032243;28;20399;-66
2021/03/14 10:15:57;;;;;;;1999.90;999.90;;;5.80;99.90;;;;;;5032572;28;20462;-67
2021/03/14 10:18:24;;;;;;;1999.90;999.90;;;5.80;99.90;;;;;;5032739;28;20803;-67
2021/03/14 10:20:52;;;;;;;1999.90;999.90;;;5.70;99.90;;;;;;5031947;28;20431;-67
2021/03/14 10:23:23;;;;;;;1999.90;999.90;;;5.80;99.90;;;;;;5032582;28;20434;-67
2021/03/14 10:25:49;;;;;;;1999.90;999.90;;;5.70;99.90;;;;;;5031682;28;20426;-66
2021/03/14 10:28:17;;;;;;;1999.90;999.90;;;5.70;99.90;;;;;;5032197;28;20781;-67
2021/03/14 10:30:45;;;;;;;1999.90;999.90;;;5.70;99.90;;;;;;5030578;28;20800;-65
2021/03/14 10:33:12;;;;;;;1999.90;999.90;;;5.80;99.90;;;;;;5031094;28;20410;-65
2021/03/14 10:35:40;;;;;;;1999.90;999.90;;;5.90;99.90;;;;;;5030325;28;20434;-66
2021/03/14 10:38:20;;;;;;;1999.90;999.90;;;5.90;99.90;;;;;;5031340;28;20410;-66
2021/03/14 10:40:47;;;;;;;1999.90;999.90;;;5.90;99.90;;;;;;5031028;28;20561;-66
2021/03/14 10:43:25;;;;;;;1999.90;999.90;;;6.00;99.90;;;;;;5031316;28;20403;-66
2021/03/14 10:45:52;;;;;;;1999.90;999.90;;;6.20;99.90;;;;;;5031293;28;20502;-66
2021/03/14 10:48:24;;;;;;;1999.90;999.90;;;6.20;99.90;;;;;;5031550;28;20407;-66
2021/03/14 10:51:02;;;;;;;1999.90;999.90;;;6.30;99.90;;;;;;5030886;28;20514;-67
2021/03/14 10:53:28;;;;;;;1999.90;999.90;;;6.40;99.90;;;;;;5027386;28;20414;-67
2021/03/14 10:56:06;;;;;;;1999.90;999.90;;;6.30;99.90;;;;;;5028019;28;20426;-67
2021/03/14 10:58:40;;;;;;;1999.90;999.90;;;6.30;99.90;;;;;;5026653;28;20419;-68
2021/03/14 11:01:09;;;;;;;1999.90;999.90;;;6.30;99.90;;;;;;5027464;28;20866;-68
2021/03/14 11:03:37;;;;;;;1999.90;999.90;;;6.40;99.90;;;;;;5026398;28;20783;-68
2021/03/14 11:06:24;;;;;;;1999.90;999.90;;;6.60;99.90;;;;;;5027283;28;20442;-68
2021/03/14 11:09:03;;;;;;;1999.90;999.90;;;6.80;99.90;;;;;;5027375;28;20465;-68
2021/03/14 11:11:49;;;;;;;1999.90;999.90;;;7.00;99.90;;;;;;5024976;28;20458;-68
2021/03/14 11:14:36;;;;;;;1999.90;999.90;;;7.10;99.90;;;;;;5026357;28;20506;-68
2021/03/14 11:17:15;;;;;;;1999.90;999.90;;;7.10;99.90;;;;;;5027239;28;20844;-68
2021/03/14 11:19:44;;;;;;;1999.90;999.90;;;7.10;99.90;;;;;;5027410;28;20429;-68
2021/03/14 11:22:13;;;;;;;1999.90;999.90;;;7.10;99.90;;;;;;5027155;28;20501;-68
2021/03/14 11:24:39;;;;;;;1999.90;999.90;;;7.00;99.90;;;;;;5027375;28;20447;-68
2021/03/14 11:27:05;;;;;;;1999.90;999.90;;;7.00;99.90;;;;;;5027675;28;20412;-68
2021/03/14 11:29:31;;;;;;;1999.90;999.90;;;6.90;99.90;;;;;;5025739;28;20489;-68
2021/03/14 11:31:57;;;;;;;1999.90;999.90;;;6.80;99.90;;;;;;5026323;28;20478;-67
2021/03/14 11:34:23;;;;;;;1999.90;999.90;;;6.80;99.90;;;;;;5026999;28;20168;-67
2021/03/14 11:36:49;;;;;;;1999.90;999.90;;;6.80;99.90;;;;;;5026498;28;20180;-68
2021/03/14 11:39:15;;;;;;;1999.90;999.90;;;6.70;99.90;;;;;;5026405;28;20522;-68
2021/03/14 11:41:41;;;;;;;1999.90;999.90;;;6.70;99.90;;;;;;5025600;28;20581;-67
2021/03/14 11:44:07;;;;;;;1999.90;999.90;;;6.80;99.90;;;;;;5026465;28;20180;-68
2021/03/14 11:46:33;;;;;;;1999.90;999.90;;;6.80;99.90;;;;;;5026730;28;20465;-68
2021/03/14 11:48:58;;;;;;;1999.90;999.90;;;6.80;99.90;;;;;;5025703;28;20451;-68
2021/03/14 11:51:24;;;;;;;1999.90;999.90;;;6.90;99.90;;;;;;5026558;28;20208;-68
2021/03/14 11:53:50;;;;;;;1999.90;999.90;;;7.00;99.90;;;;;;5026723;28;20521;-68
2021/03/14 11:56:16;;;;;;;1999.90;999.90;;;7.10;99.90;;;;;;5025919;28;20658;-68
2021/03/14 11:58:41;;;;;;;1999.90;999.90;;;7.10;99.90;;;;;;5025981;28;20168;-67
2021/03/14 12:01:07;;;;;;;1999.90;999.90;;;7.30;99.90;;;;;;5026820;28;20176;-67
2021/03/14 12:03:33;;;;;;;1999.90;999.90;;;7.20;99.90;;;;;;5025902;28;20731;-67
2021/03/14 12:05:59;;;;;;;1999.90;999.90;;;7.20;99.90;;;;;;5026087;28;20427;-67
2021/03/14 12:08:24;;;;;;;1999.90;999.90;;;7.30;99.90;;;;;;5026506;28;20772;-67
2021/03/14 12:10:50;;;;;;;1999.90;999.90;;;7.40;99.90;;;;;;5023635;28;20216;-67
2021/03/14 12:13:16;;;;;;;1999.90;999.90;;;7.60;99.90;;;;;;5026268;28;20176;-67
2021/03/14 12:15:42;;;;;;;1999.90;999.90;;;7.70;99.90;;;;;;5025758;28;20948;-67
2021/03/14 12:18:07;;;;;;;1999.90;999.90;;;7.80;99.90;;;;;;5025084;28;20173;-67
2021/03/14 12:20:33;;;;;;;1999.90;999.90;;;7.80;99.90;;;;;;5026205;28;20201;-67